East Islip, New York
Current Conditions -  °F | °C
As of 8:56 PM on Tuesday 21 Oct 2014 (Local Time) from KISP Reporting Station
Broken Clouds Broken Clouds  
Wind Chill: 55°   Ceiling: 10000
Heat Index: 55°   Visibility: 10mi
Dew Point: 52°   Wind: 5mph
Humidity: 89%   Direction: 340°NNW
Pressure: 29.87"   Gusts: NA
Location:  40.73°N, 73.19°W
Report Text: KISP 220056Z 34004KT 10SM FEW034 BKN100 BKN230 13/11 A2987 RMK AO2 SLP115 OCNL LTGIC DSNT W CB DSNT W T01280111
Loading
Personal Weather Stations






























Interactive Weather Map New forecast layout! Learn more

10-Day Weather Forecast

Advertisements
Track Severe Weather on mobile